createdAt,value
2023-02-08T00:01:50.819Z,103373.75
2023-02-08T00:04:22.094Z,103371.59
2023-02-08T00:06:53.361Z,103375.25
2023-02-08T00:09:24.756Z,103369.78
2023-02-08T00:11:56.202Z,103374.09
2023-02-08T00:14:27.479Z,103343.50
2023-02-08T00:16:58.802Z,103348.94
2023-02-08T00:19:30.192Z,103315.91
2023-02-08T00:22:01.471Z,103359.41
2023-02-08T00:24:33.194Z,103364.47
2023-02-08T00:27:04.603Z,103326.28
2023-02-08T00:29:35.932Z,103359.56
2023-02-08T00:32:07.222Z,103355.56
2023-02-08T00:34:38.859Z,103351.69
2023-02-08T00:37:10.895Z,103351.22
2023-02-08T00:39:42.250Z,103354.47
2023-02-08T00:42:13.506Z,103354.34
2023-02-08T00:44:45.284Z,103349.03
2023-02-08T00:47:16.649Z,103345.81
2023-02-08T00:49:47.948Z,103338.78
2023-02-08T00:52:19.530Z,103334.13
2023-02-08T00:54:50.810Z,103343.34
2023-02-08T00:57:22.082Z,103334.16
2023-02-08T00:59:53.489Z,103339.88
2023-02-08T01:02:25.142Z,103316.19
2023-02-08T01:04:56.423Z,103338.59
2023-02-08T01:07:27.755Z,103338.34
2023-02-08T01:10:00.551Z,103332.91
2023-02-08T01:12:32.032Z,103328.13
2023-02-08T01:15:03.853Z,103303.88
2023-02-08T01:17:35.245Z,103328.00
2023-02-08T01:20:06.979Z,103322.69
2023-02-08T01:22:38.239Z,103320.72
2023-02-08T01:25:09.491Z,103329.28
2023-02-08T01:27:40.778Z,103326.69
2023-02-08T01:30:12.845Z,103295.88
2023-02-08T01:32:44.188Z,103331.88
2023-02-08T01:35:15.558Z,103331.63
2023-02-08T01:37:46.818Z,103321.78
2023-02-08T01:40:18.155Z,103326.69
2023-02-08T01:42:49.442Z,103305.03
2023-02-08T01:45:27.895Z,103322.00
2023-02-08T01:48:06.304Z,103320.97
2023-02-08T01:51:02.722Z,103320.16
2023-02-08T01:53:35.358Z,103319.25
2023-02-08T01:56:18.430Z,103317.56
2023-02-08T01:58:53.866Z,103320.94
2023-02-08T02:01:27.220Z,103295.03
2023-02-08T02:04:04.224Z,103287.53
2023-02-08T02:06:40.876Z,103318.09
2023-02-08T02:09:19.941Z,103308.78
2023-02-08T02:11:53.313Z,103318.88
2023-02-08T02:14:25.553Z,103331.94
2023-02-08T02:16:59.730Z,103321.31
2023-02-08T02:19:31.065Z,103334.00
2023-02-08T02:22:48.556Z,103335.56
2023-02-08T02:25:32.157Z,103325.84
2023-02-08T02:28:38.613Z,103325.59
2023-02-08T02:31:47.211Z,103318.22
2023-02-08T02:34:37.102Z,103320.19
2023-02-08T02:37:28.198Z,103318.00
2023-02-08T02:40:25.721Z,103293.13
2023-02-08T02:43:33.020Z,103319.97
2023-02-08T02:46:38.774Z,103321.50
2023-02-08T02:49:36.062Z,103317.63
2023-02-08T02:52:21.120Z,103311.94
2023-02-08T02:54:55.554Z,103307.41
2023-02-08T02:57:32.347Z,103315.06
2023-02-08T03:00:10.436Z,103315.31
2023-02-08T03:02:42.091Z,103317.91
2023-02-08T03:05:13.626Z,103318.03
2023-02-08T03:07:53.695Z,103319.72
2023-02-08T03:10:49.372Z,103306.78
2023-02-08T03:13:35.354Z,103327.25
2023-02-08T03:16:19.289Z,103297.34
2023-02-08T03:19:04.912Z,103321.69
2023-02-08T03:21:55.297Z,103315.88
2023-02-08T03:24:36.078Z,103323.25
2023-02-08T03:27:22.620Z,103317.94
2023-02-08T03:30:13.269Z,103325.47
2023-02-08T03:32:51.678Z,103327.53
2023-02-08T03:35:29.555Z,103337.91
2023-02-08T03:38:29.371Z,103354.75
2023-02-08T03:41:04.287Z,103356.31
2023-02-08T03:43:40.141Z,103352.41
2023-02-08T03:46:15.971Z,103353.72
2023-02-08T03:48:54.195Z,103355.91
2023-02-08T03:51:28.100Z,103324.78
2023-02-08T03:54:03.237Z,103355.91
2023-02-08T03:56:41.531Z,103352.41
2023-02-08T03:59:20.052Z,103319.72
2023-02-08T04:01:58.794Z,103354.59
2023-02-08T04:04:35.256Z,103351.50
2023-02-08T04:07:06.533Z,103360.69
2023-02-08T04:09:38.961Z,103358.34
2023-02-08T04:12:10.392Z,103355.34
2023-02-08T04:14:41.798Z,103362.09
2023-02-08T04:17:13.079Z,103353.66
2023-02-08T04:19:44.435Z,103327.47
2023-02-08T04:22:15.757Z,103366.09
2023-02-08T04:24:47.062Z,103364.28
2023-02-08T04:27:18.479Z,103337.94
2023-02-08T04:29:49.853Z,103327.06
2023-02-08T04:32:21.165Z,103359.09
2023-02-08T04:34:52.478Z,103355.47
2023-02-08T04:37:23.879Z,103354.28
2023-02-08T04:39:55.159Z,103353.25
2023-02-08T04:42:26.571Z,103351.94
2023-02-08T04:44:57.859Z,103349.34
2023-02-08T04:47:29.314Z,103341.94
2023-02-08T04:50:00.662Z,103344.53
2023-02-08T04:52:32.057Z,103355.66
2023-02-08T04:55:03.427Z,103313.03
2023-02-08T04:57:34.709Z,103342.19
2023-02-08T05:00:06.625Z,103343.88
2023-02-08T05:02:37.901Z,103344.66
2023-02-08T05:05:09.217Z,103302.66
2023-02-08T05:07:43.592Z,103335.69
2023-02-08T05:10:15.649Z,103330.53
2023-02-08T05:12:47.090Z,103325.63
2023-02-08T05:15:18.399Z,103322.91
2023-02-08T05:17:49.744Z,103284.44
2023-02-08T05:20:21.575Z,103292.47
2023-02-08T05:22:52.874Z,103288.59
2023-02-08T05:25:24.236Z,103312.28
2023-02-08T05:27:55.688Z,103305.41
2023-02-08T05:30:27.071Z,103321.22
2023-02-08T05:32:58.616Z,103319.00
2023-02-08T05:35:30.147Z,103292.22
2023-02-08T05:38:01.568Z,103291.56
2023-02-08T05:40:33.457Z,103328.09
2023-02-08T05:43:04.820Z,103321.50
2023-02-08T05:45:36.190Z,103322.81
2023-02-08T05:48:07.527Z,103319.72
2023-02-08T05:50:39.262Z,103303.91
2023-02-08T05:53:10.904Z,103300.03
2023-02-08T05:55:46.260Z,103292.78
2023-02-08T05:58:17.594Z,103310.69
2023-02-08T06:00:49.048Z,103301.09
2023-02-08T06:03:20.599Z,103287.25
2023-02-08T06:05:52.084Z,103305.78
2023-02-08T06:08:23.376Z,103316.66
2023-02-08T06:10:54.731Z,103313.28
2023-02-08T06:13:26.122Z,103284.91
2023-02-08T06:15:57.795Z,103261.34
2023-02-08T06:18:29.119Z,103297.34
2023-02-08T06:21:00.448Z,103284.66
2023-02-08T06:23:31.966Z,103314.44
2023-02-08T06:26:03.642Z,103307.19
2023-02-08T06:28:35.035Z,103318.19
2023-02-08T06:31:06.334Z,103275.81
2023-02-08T06:33:37.717Z,103307.28
2023-02-08T06:36:09.250Z,103302.38
2023-02-08T06:38:40.637Z,103291.88
2023-02-08T06:41:11.924Z,103277.50
2023-02-08T06:43:43.302Z,103297.59
2023-02-08T06:46:14.601Z,103311.69
2023-02-08T06:48:46.064Z,103302.91
2023-02-08T06:51:17.448Z,103306.91
2023-02-08T06:53:48.909Z,103320.78
2023-02-08T06:56:20.246Z,103327.53
2023-02-08T06:58:51.564Z,103327.78
2023-02-08T07:01:22.993Z,103320.53
2023-02-08T07:03:54.435Z,103283.97
2023-02-08T07:06:25.799Z,103330.88
2023-02-08T07:08:57.249Z,103322.06
2023-02-08T07:11:28.590Z,103328.44
2023-02-08T07:14:00.111Z,103326.34
2023-02-08T07:16:31.414Z,103337.88
2023-02-08T07:19:02.818Z,103331.28
2023-02-08T07:21:34.289Z,103330.13
2023-02-08T07:24:05.902Z,103339.19
2023-02-08T07:26:37.307Z,103319.25
2023-02-08T07:29:08.631Z,103297.63
2023-02-08T07:31:40.093Z,103319.50
2023-02-08T07:34:11.497Z,103301.25
2023-02-08T07:36:42.774Z,103319.50
2023-02-08T07:39:14.199Z,103305.50
2023-02-08T07:41:45.542Z,103312.34
2023-02-08T07:44:17.064Z,103299.28
2023-02-08T07:46:48.432Z,103300.91
2023-02-08T07:49:19.789Z,103299.59
2023-02-08T07:51:51.065Z,103276.53
2023-02-08T07:54:22.516Z,103300.38
2023-02-08T07:56:53.897Z,103311.22
2023-02-08T07:59:25.382Z,103301.22
2023-02-08T08:01:56.758Z,103316.47
2023-02-08T08:04:28.157Z,103297.66
2023-02-08T08:06:59.431Z,103311.44
2023-02-08T08:09:30.938Z,103279.13
2023-02-08T08:12:02.701Z,103319.72
2023-02-08T08:14:34.029Z,103301.34
2023-02-08T08:17:05.367Z,103279.22
2023-02-08T08:19:36.748Z,103294.13
2023-02-08T08:22:08.031Z,103304.78
2023-02-08T08:24:39.311Z,103304.03
2023-02-08T08:27:10.687Z,103291.75
2023-02-08T08:29:42.156Z,103269.13
2023-02-08T08:32:13.417Z,103294.69
2023-02-08T08:34:44.715Z,103273.19
2023-02-08T08:37:15.988Z,103286.09
2023-02-08T08:39:47.280Z,103295.81
2023-02-08T08:42:18.723Z,103289.81
2023-02-08T08:44:50.131Z,103278.03
2023-02-08T08:47:21.734Z,103283.31
2023-02-08T08:49:53.175Z,103229.72
2023-02-08T08:52:24.509Z,103273.22
2023-02-08T08:54:55.891Z,103278.44
2023-02-08T08:57:27.204Z,103277.94
2023-02-08T08:59:58.584Z,103291.88
2023-02-08T09:02:29.971Z,103266.91
2023-02-08T09:05:02.677Z,103258.22
2023-02-08T09:07:34.286Z,103271.72
2023-02-08T09:10:06.047Z,103289.38
2023-02-08T09:12:37.396Z,103283.38
2023-02-08T09:15:08.912Z,103267.41
2023-02-08T09:17:40.198Z,103285.66
2023-02-08T09:20:12.592Z,103260.44
2023-02-08T09:22:43.852Z,103264.03
2023-02-08T09:25:15.492Z,103275.63
2023-02-08T09:27:46.872Z,103286.31
2023-02-08T09:30:18.144Z,103297.19
2023-02-08T09:32:49.418Z,103292.72
2023-02-08T09:35:20.694Z,103281.38
2023-02-08T09:37:55.324Z,103277.06
2023-02-08T09:40:42.771Z,103268.03
2023-02-08T09:43:57.560Z,103280.03
2023-02-08T09:46:32.637Z,103276.47
2023-02-08T09:49:08.856Z,103278.25
2023-02-08T09:51:53.577Z,103270.34
2023-02-08T09:54:39.017Z,103266.78
2023-02-08T09:57:16.172Z,103272.31
2023-02-08T10:00:00.142Z,103275.78
2023-02-08T10:02:34.099Z,103273.94
2023-02-08T10:05:20.475Z,103270.19
2023-02-08T10:07:51.907Z,103281.81
2023-02-08T10:10:59.086Z,103240.56
2023-02-08T10:13:45.703Z,103268.31
2023-02-08T10:16:41.952Z,103274.94
2023-02-08T10:19:46.852Z,103269.47
2023-02-08T10:22:48.990Z,103217.00
2023-02-08T10:25:27.308Z,103278.41
2023-02-08T10:28:23.246Z,103274.50
2023-02-08T10:31:10.535Z,103264.00
2023-02-08T10:34:00.884Z,103259.03
2023-02-08T10:36:39.424Z,103261.88
2023-02-08T10:39:23.963Z,103256.91
2023-02-08T10:41:55.653Z,103262.91
2023-02-08T10:44:55.944Z,103264.31
2023-02-08T10:47:42.979Z,103263.16
2023-02-08T10:50:35.531Z,103257.59
2023-02-08T10:53:15.354Z,103255.50
2023-02-08T10:55:48.188Z,103266.53
2023-02-08T10:58:22.975Z,103258.88
2023-02-08T11:00:55.160Z,103262.88
2023-02-08T11:03:29.213Z,103267.59
2023-02-08T11:06:00.672Z,103244.66
2023-02-08T11:08:32.036Z,103245.91
2023-02-08T11:11:10.260Z,103229.19
2023-02-08T11:13:44.352Z,103257.09
2023-02-08T11:16:26.690Z,103267.53
2023-02-08T11:19:07.739Z,103269.63
2023-02-08T11:21:41.094Z,103268.16
2023-02-08T11:24:17.476Z,103258.72
2023-02-08T11:26:50.945Z,103257.09
2023-02-08T11:29:25.824Z,103251.19
2023-02-08T11:32:01.358Z,103243.47
2023-02-08T11:34:39.138Z,103246.34
2023-02-08T11:37:17.538Z,103248.94
2023-02-08T11:39:54.139Z,103247.34
2023-02-08T11:42:40.983Z,103244.00
2023-02-08T11:45:30.038Z,103233.56
2023-02-08T11:48:04.934Z,103235.50
2023-02-08T11:50:39.284Z,103233.81
2023-02-08T11:53:27.569Z,103232.16
2023-02-08T11:56:06.326Z,103237.59
2023-02-08T11:58:37.658Z,103234.38
2023-02-08T12:01:21.130Z,103202.34
2023-02-08T12:03:52.780Z,103226.81
2023-02-08T12:06:33.804Z,103221.06
2023-02-08T12:09:30.507Z,103212.66
2023-02-08T12:12:26.609Z,103214.69
2023-02-08T12:15:16.840Z,103214.00
2023-02-08T12:17:48.059Z,103213.16
2023-02-08T12:20:42.438Z,103210.69
2023-02-08T12:23:49.125Z,103207.28
2023-02-08T12:26:45.049Z,103209.19
2023-02-08T12:29:47.986Z,103192.63
2023-02-08T12:32:51.929Z,103199.91
2023-02-08T12:36:02.790Z,103187.88
2023-02-08T12:39:19.699Z,103183.69
2023-02-08T12:42:19.424Z,103190.03
2023-02-08T12:45:09.319Z,103188.50
2023-02-08T12:47:58.269Z,103163.09
2023-02-08T12:50:52.825Z,103141.75
2023-02-08T12:53:43.797Z,103149.03
2023-02-08T12:56:26.299Z,103150.16
2023-02-08T12:59:11.790Z,103146.97
2023-02-08T13:01:48.402Z,103136.50
2023-02-08T13:04:29.702Z,103141.78
2023-02-08T13:07:09.974Z,103141.00
2023-02-08T13:10:02.515Z,103127.03
2023-02-08T13:12:42.141Z,103117.22
2023-02-08T13:15:30.157Z,103115.75
2023-02-08T13:18:29.731Z,103117.75
2023-02-08T13:21:11.469Z,103103.88
2023-02-08T13:23:52.436Z,103073.72
2023-02-08T13:26:28.005Z,103092.00
2023-02-08T13:29:02.458Z,103102.66
2023-02-08T13:31:40.953Z,103098.28
2023-02-08T13:34:21.489Z,103098.38
2023-02-08T13:36:57.362Z,103096.84
2023-02-08T13:39:36.736Z,103081.22
2023-02-08T13:42:33.007Z,103081.38
2023-02-08T13:45:07.478Z,103061.72
2023-02-08T13:47:49.188Z,103072.03
2023-02-08T13:50:48.516Z,103072.19
2023-02-08T13:53:38.435Z,103070.63
2023-02-08T13:56:12.067Z,103056.31
2023-02-08T13:58:49.368Z,103068.78
2023-02-08T14:01:22.405Z,103078.50
2023-02-08T14:04:09.826Z,103074.84
2023-02-08T14:06:43.990Z,103070.41
2023-02-08T14:09:15.254Z,103075.69
2023-02-08T14:11:54.572Z,103065.97
2023-02-08T14:14:36.342Z,103059.72
2023-02-08T14:17:22.217Z,103037.56
2023-02-08T14:20:03.896Z,103054.69
2023-02-08T14:22:51.868Z,103050.44
2023-02-08T14:25:45.007Z,103043.47
2023-02-08T14:28:30.398Z,103046.19
2023-02-08T14:31:07.183Z,103044.41
2023-02-08T14:33:42.948Z,103028.28
2023-02-08T14:36:35.001Z,103037.19
2023-02-08T14:39:26.300Z,103035.22
2023-02-08T14:42:05.274Z,103027.97
2023-02-08T14:44:39.522Z,103032.09
2023-02-08T14:47:36.807Z,103025.75
2023-02-08T14:50:18.871Z,103037.75
2023-02-08T14:53:13.298Z,103040.91
2023-02-08T14:55:52.289Z,103034.16
2023-02-08T14:58:37.497Z,103023.91
2023-02-08T15:01:44.039Z,103012.72
2023-02-08T15:04:18.251Z,103020.94
2023-02-08T15:07:04.624Z,103011.66
2023-02-08T15:09:38.681Z,103000.63
2023-02-08T15:12:24.626Z,103013.34
2023-02-08T15:14:59.172Z,103007.66
2023-02-08T15:17:38.566Z,102997.56
2023-02-08T15:20:22.343Z,102997.19
2023-02-08T15:23:02.548Z,102992.38
2023-02-08T15:25:36.839Z,102996.38
2023-02-08T15:28:20.753Z,102983.59
2023-02-08T15:30:59.401Z,102960.88
2023-02-08T15:33:31.150Z,102990.94
2023-02-08T15:36:06.775Z,102978.84
2023-02-08T15:38:38.779Z,102993.69
2023-02-08T15:41:14.442Z,102992.38
2023-02-08T15:43:45.735Z,102988.56
2023-02-08T15:46:26.594Z,102986.41
2023-02-08T15:48:59.351Z,102979.88
2023-02-08T15:51:30.889Z,102977.63
2023-02-08T15:54:02.942Z,102961.19
2023-02-08T15:56:40.716Z,102969.75
2023-02-08T15:59:25.471Z,102954.81
2023-02-08T16:01:58.292Z,102940.81
2023-02-08T16:04:29.616Z,102951.22
2023-02-08T16:07:01.240Z,102981.88
2023-02-08T16:09:32.692Z,102964.41
2023-02-08T16:12:04.299Z,102976.59
2023-02-08T16:14:52.200Z,102952.69
2023-02-08T16:17:44.684Z,102978.81
2023-02-08T16:20:26.003Z,102967.09
2023-02-08T16:23:21.351Z,102959.34
2023-02-08T16:25:52.661Z,102968.81
2023-02-08T16:28:28.013Z,102970.78
2023-02-08T16:31:01.965Z,102963.84
2023-02-08T16:33:37.143Z,102961.31
2023-02-08T16:36:22.888Z,102959.56
2023-02-08T16:39:16.079Z,102951.19
2023-02-08T16:41:58.847Z,102943.88
2023-02-08T16:44:36.585Z,102948.81
2023-02-08T16:47:28.921Z,102943.28
2023-02-08T16:50:00.206Z,102921.38
2023-02-08T16:52:31.964Z,102924.59
2023-02-08T16:55:03.836Z,102943.19
2023-02-08T16:57:44.432Z,102925.72
2023-02-08T17:00:23.390Z,102911.09
2023-02-08T17:02:55.775Z,102922.94
2023-02-08T17:05:30.673Z,102921.81
2023-02-08T17:08:03.955Z,102900.88
2023-02-08T17:10:35.912Z,102895.56
2023-02-08T17:13:19.918Z,102888.13
2023-02-08T17:15:52.908Z,102894.44
2023-02-08T17:18:24.208Z,102886.41
2023-02-08T17:20:59.517Z,102901.81
2023-02-08T17:23:30.938Z,102847.00
2023-02-08T17:26:02.938Z,102885.19
2023-02-08T17:28:35.669Z,102900.31
2023-02-08T17:31:07.184Z,102853.16
2023-02-08T17:33:40.667Z,102886.09
2023-02-08T17:36:14.677Z,102901.16
2023-02-08T17:38:46.971Z,102897.88
2023-02-08T17:41:19.952Z,102892.50
2023-02-08T17:43:54.530Z,102894.94
2023-02-08T17:46:27.808Z,102890.19
2023-02-08T17:49:01.413Z,102889.06
2023-02-08T17:51:34.194Z,102865.16
2023-02-08T17:54:05.671Z,102891.09
2023-02-08T17:56:37.021Z,102893.28
2023-02-08T17:59:08.727Z,102891.16
2023-02-08T18:01:40.492Z,102889.19
2023-02-08T18:04:13.217Z,102882.06
2023-02-08T18:06:44.472Z,102877.41
2023-02-08T18:09:15.899Z,102870.84
2023-02-08T18:11:47.154Z,102871.56
2023-02-08T18:14:18.822Z,102876.63
2023-02-08T18:16:50.190Z,102877.22
2023-02-08T18:19:22.642Z,102868.22
2023-02-08T18:21:53.996Z,102869.50
2023-02-08T18:24:25.256Z,102866.47
2023-02-08T18:26:58.922Z,102829.56
2023-02-08T18:29:31.111Z,102834.88
2023-02-08T18:32:02.612Z,102850.81
2023-02-08T18:34:34.372Z,102858.31
2023-02-08T18:37:05.619Z,102828.50
2023-02-08T18:39:36.999Z,102835.44
2023-02-08T18:42:08.459Z,102845.25
2023-02-08T18:44:39.806Z,102827.81
2023-02-08T18:47:11.128Z,102845.63
2023-02-08T18:49:42.478Z,102846.25
2023-02-08T18:52:15.755Z,102838.06
2023-02-08T18:54:47.066Z,102831.59
2023-02-08T18:57:18.574Z,102830.34
2023-02-08T18:59:49.937Z,102777.81
2023-02-08T19:02:23.183Z,102818.94
2023-02-08T19:04:54.494Z,102811.81
2023-02-08T19:07:25.848Z,102810.19
2023-02-08T19:09:57.228Z,102811.56
2023-02-08T19:12:28.563Z,102795.25
2023-02-08T19:14:59.819Z,102803.25
2023-02-08T19:17:31.113Z,102769.88
2023-02-08T19:20:02.391Z,102787.69
2023-02-08T19:22:33.895Z,102807.66
2023-02-08T19:25:05.572Z,102793.16
2023-02-08T19:27:37.019Z,102807.38
2023-02-08T19:30:09.216Z,102794.78
2023-02-08T19:32:40.465Z,102795.50
2023-02-08T19:35:12.258Z,102798.63
2023-02-08T19:37:45.554Z,102794.94
2023-02-08T19:40:18.195Z,102793.84
2023-02-08T19:42:49.518Z,102798.06
2023-02-08T19:45:20.805Z,102806.50
2023-02-08T19:47:52.730Z,102794.63
2023-02-08T19:50:24.052Z,102799.72
2023-02-08T19:52:55.355Z,102803.94
2023-02-08T19:55:26.631Z,102795.94
2023-02-08T19:57:57.925Z,102801.78
2023-02-08T20:00:29.563Z,102790.16
2023-02-08T20:03:07.766Z,102780.16
2023-02-08T20:05:45.495Z,102774.94
2023-02-08T20:08:18.609Z,102784.38
2023-02-08T20:10:50.294Z,102783.38
2023-02-08T20:13:22.829Z,102778.81
2023-02-08T20:16:01.676Z,102781.22
2023-02-08T20:18:33.060Z,102787.25
2023-02-08T20:21:05.267Z,102775.63
2023-02-08T20:23:36.989Z,102778.25
2023-02-08T20:26:15.362Z,102773.94
2023-02-08T20:28:51.112Z,102770.13
2023-02-08T20:31:42.965Z,102757.25
2023-02-08T20:34:16.438Z,102760.44
2023-02-08T20:37:05.857Z,102769.25
2023-02-08T20:39:38.071Z,102762.97
2023-02-08T20:42:10.005Z,102724.94
2023-02-08T20:44:41.363Z,102766.06
2023-02-08T20:47:18.957Z,102747.06
2023-02-08T20:49:51.130Z,102765.78
2023-02-08T20:52:22.748Z,102765.47
2023-02-08T20:54:54.099Z,102761.06
2023-02-08T20:57:25.615Z,102743.78
2023-02-08T20:59:56.903Z,102741.06
2023-02-08T21:02:28.228Z,102758.19
2023-02-08T21:05:00.624Z,102738.97
2023-02-08T21:07:31.932Z,102749.38
2023-02-08T21:10:03.910Z,102770.50
2023-02-08T21:12:36.465Z,102757.09
2023-02-08T21:15:09.212Z,102762.19
2023-02-08T21:17:41.168Z,102735.88
2023-02-08T21:20:12.781Z,102758.09
2023-02-08T21:22:44.084Z,102754.78
2023-02-08T21:25:15.477Z,102743.88
2023-02-08T21:27:46.810Z,102715.78
2023-02-08T21:30:18.196Z,102729.09
2023-02-08T21:32:49.465Z,102753.19
2023-02-08T21:35:20.737Z,102745.22
2023-02-08T21:37:52.016Z,102744.91
2023-02-08T21:40:23.295Z,102708.09
2023-02-08T21:42:54.580Z,102749.00
2023-02-08T21:45:25.881Z,102748.09
2023-02-08T21:47:57.273Z,102713.38
2023-02-08T21:50:47.395Z,102737.50
2023-02-08T21:53:37.473Z,102732.09
2023-02-08T21:56:09.788Z,102727.47
2023-02-08T21:58:41.099Z,102735.38
2023-02-08T22:01:12.420Z,102670.84
2023-02-08T22:03:43.775Z,102724.88
2023-02-08T22:06:15.075Z,102727.38
2023-02-08T22:08:46.386Z,102714.28
2023-02-08T22:11:17.676Z,102709.88
2023-02-08T22:13:48.933Z,102710.88
2023-02-08T22:16:20.235Z,102705.69
2023-02-08T22:18:51.528Z,102701.06
2023-02-08T22:21:22.806Z,102699.59
2023-02-08T22:23:54.073Z,102697.88
2023-02-08T22:26:25.692Z,102693.28
2023-02-08T22:28:57.028Z,102696.56
2023-02-08T22:31:28.416Z,102687.88
2023-02-08T22:33:59.785Z,102660.97
2023-02-08T22:36:31.192Z,102675.06
2023-02-08T22:39:02.739Z,102653.75
2023-02-08T22:41:34.243Z,102653.06
2023-02-08T22:44:05.685Z,102651.06
2023-02-08T22:46:36.987Z,102669.66
2023-02-08T22:49:08.790Z,102652.75
2023-02-08T22:51:40.198Z,102657.47
2023-02-08T22:54:11.474Z,102665.16
2023-02-08T22:56:42.841Z,102630.47
2023-02-08T22:59:14.095Z,102662.47
2023-02-08T23:01:45.592Z,102648.25
2023-02-08T23:04:16.911Z,102654.06
2023-02-08T23:06:48.343Z,102647.84
2023-02-08T23:09:19.670Z,102653.84
2023-02-08T23:11:51.112Z,102656.25
2023-02-08T23:14:22.354Z,102653.44
2023-02-08T23:16:53.720Z,102655.81
2023-02-08T23:19:25.377Z,102649.41
2023-02-08T23:22:01.090Z,102651.81
2023-02-08T23:24:32.385Z,102636.00
2023-02-08T23:27:03.805Z,102647.91
2023-02-08T23:29:35.160Z,102639.69
2023-02-08T23:32:06.524Z,102646.78
2023-02-08T23:34:37.906Z,102626.41
2023-02-08T23:37:09.338Z,102640.59
2023-02-08T23:39:40.589Z,102641.50
2023-02-08T23:42:25.276Z,102640.00
2023-02-08T23:44:59.784Z,102613.09
2023-02-08T23:47:31.615Z,102607.00
2023-02-08T23:50:02.989Z,102608.81
2023-02-08T23:52:36.113Z,102615.53
2023-02-08T23:55:08.086Z,102625.00
2023-02-08T23:57:39.420Z,102589.63
